tititudorancea.com
Station Historical Data
Daily Summary for May 29, 2018 Units:  Metric    English   Both
« Previous Day
Next Day »
Daily Weekly Monthly Yearly Custom
  High: Low: Average:
Temperature: -17.8 °C 6.1 °C 10.8 °C
Dew Point: -17.8 °C 4.9 °C 7.3 °C
Humidity: Humidity % 63 % 80 %
Wind Speed: 0 km/h 0 km/h 14.6 km/h
Wind Gust: 0 km/h - -
Wind:- - WSW
Pressure: 0 hPa 1010 hPa -
Precipitation: 10.41 mm    
Historical Graphs
 
 
Ararat weather Find more about Weather in Ararat, AU


 



 


Tabular Data for May 29, 2018
Time Temperature Dew Point Pressure Wind Wind Speed Wind Gust Humidity Rainfall Rate (Hourly)
-17.8 °C -17.8 °C 0 hPa Calm     Humidity % 0 mm
00:00 13.3 °C 11.8 °C 1011.7 hPa North 18.5 km/h 18.5 km/h 91 % 3.05 mm
00:05 13.3 °C 11.9 °C 1011.7 hPa North 22.2 km/h 22.2 km/h 91 % 3.05 mm
00:10 13.3 °C 11.8 °C 1011.4 hPa North 20.4 km/h 20.4 km/h 91 % 2.79 mm
00:15 13.3 °C 11.8 °C 1011.1 hPa NNE 20.4 km/h 20.4 km/h 91 % 2.54 mm
00:20 13.2 °C 11.8 °C 1011.1 hPa North 20.4 km/h 20.4 km/h 91 % 2.29 mm
00:25 13.2 °C 11.8 °C 1011.1 hPa North 27.8 km/h 27.8 km/h 91 % 2.29 mm
00:30 13.2 °C 11.8 °C 1010.7 hPa NNE 25.9 km/h 25.9 km/h 91 % 2.03 mm
00:35 13.2 °C 11.8 °C 1011.1 hPa North 22.2 km/h 22.2 km/h 91 % 2.03 mm
00:40 13.2 °C 11.8 °C 1010.7 hPa NNE 19.3 km/h 19.3 km/h 91 % 1.78 mm
00:45 13.2 °C 11.8 °C 1010.7 hPa NNE 22.2 km/h 22.2 km/h 91 % 1.02 mm
00:50 13.2 °C 11.7 °C 1010.4 hPa NNE 11.3 km/h 29 km/h 91 % 0 mm
00:55 13.2 °C 11.7 °C 1010.4 hPa NNE 12.9 km/h 32.2 km/h 91 % 0 mm
01:00 13.2 °C 11.7 °C 1010.4 hPa North 18.5 km/h 18.5 km/h 91 % 0.51 mm
01:05 13.2 °C 11.7 °C 1010.4 hPa North 14.5 km/h 27.4 km/h 91 % 0 mm
01:10 13.2 °C 11.8 °C 1010.7 hPa NNE 24.1 km/h 24.1 km/h 91 % 0.51 mm
01:15 13.3 °C 11.9 °C 1010.7 hPa North 12.9 km/h 29 km/h 91 % 0.25 mm
01:20 13.4 °C 11.9 °C 1010.7 hPa North 16.1 km/h 33.8 km/h 91 % 0.76 mm
01:25 13.3 °C 11.8 °C 1010.7 hPa NNE 33.3 km/h 33.3 km/h 91 % 1.27 mm
01:28 13.3 °C 11.8 °C 1010.7 hPa North 31.5 km/h 31.5 km/h 91 % 1.27 mm
01:33 13.2 °C 11.9 °C 1010.7 hPa North 20.4 km/h 20.4 km/h 92 % 1.27 mm
01:38 13.2 °C 11.9 °C 1010.7 hPa North 22.2 km/h 22.2 km/h 92 % 1.78 mm
01:43 13.2 °C 11.9 °C 1010.4 hPa North 18.5 km/h 18.5 km/h 92 % 1.78 mm
01:48 13.1 °C 12 °C 1010.4 hPa North 18.5 km/h 18.5 km/h 93 % 1.78 mm
01:53 13.1 °C 11.9 °C 1010.4 hPa North 22.2 km/h 22.2 km/h 93 % 2.03 mm
01:58 13 °C 11.9 °C 1010.4 hPa North 20.4 km/h 20.4 km/h 93 % 2.03 mm
02:03 13 °C 11.9 °C 1010.4 hPa North 20.4 km/h 20.4 km/h 93 % 2.03 mm
02:08 13 °C 11.9 °C 1010.4 hPa North 14.8 km/h 14.8 km/h 93 % 2.03 mm
02:13 13 °C 11.9 °C 1010.4 hPa North 9.3 km/h 9.3 km/h 93 % 2.03 mm
02:18 13 °C 11.9 °C 1010 hPa North 16.7 km/h 16.7 km/h 93 % 1.27 mm
02:23 13 °C 11.9 °C 1010 hPa North 16.7 km/h 16.7 km/h 93 % 1.02 mm
02:28 13 °C 11.9 °C 1010 hPa North 18.5 km/h 18.5 km/h 93 % 1.02 mm
02:33 13.1 °C 11.9 °C 1010 hPa North 18.5 km/h 18.5 km/h 93 % 0.51 mm
02:38 13.1 °C 11.9 °C 1010 hPa NNW 18.5 km/h 18.5 km/h 93 % 0.51 mm
02:43 13.1 °C 11.9 °C 1010.4 hPa NNW 16.1 km/h 16.1 km/h 93 % 1.78 mm
02:48 13 °C 11.9 °C 1010.4 hPa North 18.5 km/h 18.5 km/h 93 % 2.29 mm
02:53 13 °C 11.9 °C 1010.4 hPa North 13 km/h 13 km/h 93 % 2.29 mm
02:58 13 °C 11.9 °C 1010 hPa NNW 16.7 km/h 16.7 km/h 93 % 2.29 mm
03:03 12.9 °C 11.8 °C 1010.4 hPa NNW 14.8 km/h 14.8 km/h 93 % 2.29 mm
03:08 12.9 °C 11.8 °C 1010.4 hPa NNW 16.7 km/h 16.7 km/h 93 % 2.29 mm
03:13 12.9 °C 11.8 °C 1010.4 hPa North 18.5 km/h 18.5 km/h 93 % 2.29 mm
03:18 12.9 °C 11.8 °C 1010.4 hPa North 22.2 km/h 22.2 km/h 93 % 2.29 mm
03:23 12.9 °C 12 °C 1010 hPa North 18.5 km/h 18.5 km/h 94 % 2.29 mm
03:28 12.9 °C 12 °C 1010 hPa NNW 16.7 km/h 16.7 km/h 94 % 2.29 mm
03:33 12.9 °C 12 °C 1010 hPa NNW 18.5 km/h 18.5 km/h 94 % 2.29 mm
03:38 12.9 °C 11.9 °C 1010 hPa NW 18.5 km/h 18.5 km/h 94 % 2.03 mm
03:43 12.9 °C 11.9 °C 1010.4 hPa NNW 16.1 km/h 16.1 km/h 94 % 0.51 mm
03:48 12.9 °C 11.9 °C 1010 hPa NNW 13 km/h 13 km/h 94 % 0 mm
03:53 12.8 °C 11.9 °C 1010 hPa North 20.4 km/h 20.4 km/h 94 % 0 mm
03:58 12.8 °C 11.7 °C 1010.7 hPa NW 18.5 km/h 18.5 km/h 93 % 0 mm
04:03 12.5 °C 11.2 °C 1010.7 hPa NW 22.2 km/h 22.2 km/h 92 % 0 mm
04:08 12.4 °C 10.8 °C 1010.4 hPa NW 27.8 km/h 27.8 km/h 90 % 0 mm
04:13 12.5 °C 10.4 °C 1010.4 hPa NW 24.1 km/h 24.1 km/h 87 % 0 mm
04:18 12.5 °C 9.5 °C 1010.7 hPa WNW 22.2 km/h 22.2 km/h 82 % 0 mm
04:23 12.5 °C 8.8 °C 1010.7 hPa NW 14.8 km/h 14.8 km/h 78 % 0 mm
04:28 12.6 °C 9.2 °C 1010.7 hPa NW 9.3 km/h 9.3 km/h 80 % 0 mm
04:33 12.6 °C 9.6 °C 1010.4 hPa NW 5.6 km/h 5.6 km/h 82 % 0 mm
04:38 12.6 °C 10.1 °C 1010.7 hPa NW 5.6 km/h 5.6 km/h 85 % 0 mm
04:43 12.4 °C 10 °C 1010.7 hPa NW 16.7 km/h 16.7 km/h 85 % 0 mm
04:48 12.4 °C 9.8 °C 1010.7 hPa NW 16.7 km/h 16.7 km/h 84 % 0 mm
04:53 12.3 °C 8.9 °C 1010.7 hPa NW 14.8 km/h 14.8 km/h 80 % 0 mm
04:58 12.2 °C 8.3 °C 1010.7 hPa NW 12.9 km/h 12.9 km/h 77 % 0 mm
05:03 12.2 °C 7.7 °C 1010.7 hPa NW 18.5 km/h 18.5 km/h 74 % 0 mm
05:08 12.3 °C 7.6 °C 1010.7 hPa NW 25.9 km/h 25.9 km/h 73 % 0 mm
05:13 12.2 °C 7.5 °C 1010.7 hPa NW 14.5 km/h 14.5 km/h 73 % 0 mm
05:18 12.1 °C 7.4 °C 1010.7 hPa NW 18.5 km/h 18.5 km/h 73 % 0 mm
05:23 11.9 °C 7.4 °C 1011.1 hPa NW 16.7 km/h 16.7 km/h 74 % 0 mm
05:28 11.8 °C 7.6 °C 1011.1 hPa North 20.4 km/h 20.4 km/h 75 % 0 mm
05:33 12 °C 7.5 °C 1011.1 hPa NW 18.5 km/h 18.5 km/h 74 % 0 mm
05:38 11.9 °C 7.4 °C 1011.1 hPa NW 14.8 km/h 14.8 km/h 74 % 0 mm
05:43 11.8 °C 7.6 °C 1011.4 hPa NW 13 km/h 13 km/h 75 % 0 mm
05:48 11.9 °C 7.6 °C 1011.1 hPa NW 14.8 km/h 14.8 km/h 75 % 0 mm
05:53 11.9 °C 7.4 °C 1011.4 hPa WNW 20.9 km/h 20.9 km/h 74 % 0 mm
05:58 11.9 °C 7.4 °C 1011.4 hPa NW 13 km/h 13 km/h 74 % 0 mm
06:03 11.9 °C 7.4 °C 1011.4 hPa WNW 27.4 km/h 27.4 km/h 74 % 0 mm
06:08 11.9 °C 7.4 °C 1011.1 hPa NW 18.5 km/h 18.5 km/h 74 % 0 mm
06:13 11.8 °C 7.2 °C 1011.1 hPa NW 31.5 km/h 31.5 km/h 73 % 0 mm
06:18 11.9 °C 7.4 °C 1011.1 hPa NW 18.5 km/h 18.5 km/h 74 % 0 mm
06:23 11.8 °C 7.3 °C 1011.4 hPa NW 17.7 km/h 17.7 km/h 74 % 0 mm
06:28 11.8 °C 7.3 °C 1011.4 hPa NW 27.8 km/h 27.8 km/h 74 % 0 mm
06:33 11.9 °C 7.2 °C 1011.4 hPa North 18.5 km/h 18.5 km/h 73 % 0 mm
06:39 11.8 °C 7.3 °C 1011.4 hPa North 16.7 km/h 16.7 km/h 74 % 0 mm
06:44 11.9 °C 7.2 °C 1011.4 hPa NW 31.5 km/h 31.5 km/h 73 % 0 mm
06:49 11.9 °C 7.4 °C 1011.7 hPa NW 38.9 km/h 38.9 km/h 74 % 0 mm
06:54 11.8 °C 7.3 °C 1011.7 hPa North 24.1 km/h 26.2 km/h 74 % 0 mm
06:59 11.9 °C 7.2 °C 1012.1 hPa WNW 22.5 km/h 22.5 km/h 73 % 0 mm
07:04 11.9 °C 7 °C 1012.1 hPa NNW 29.6 km/h 29.6 km/h 72 % 0 mm
07:09 11.8 °C 6.9 °C 1012.1 hPa North 20.4 km/h 20.4 km/h 72 % 0 mm
07:14 11.7 °C 6.8 °C 1012.1 hPa WNW 22.2 km/h 22.2 km/h 72 % 0 mm
07:19 11.6 °C 6.7 °C 1012.1 hPa NW 24.1 km/h 24.1 km/h 72 % 0 mm
07:24 11.7 °C 7.1 °C 1012.4 hPa WNW 20.4 km/h 20.4 km/h 73 % 0 mm
07:29 11.6 °C 7.1 °C 1012.4 hPa WNW 22.5 km/h 22.5 km/h 74 % 0 mm
07:34 11.5 °C 6.8 °C 1012.4 hPa North 24.1 km/h 24.1 km/h 73 % 0 mm
07:39 11.5 °C 6.6 °C 1012.4 hPa NW 22.2 km/h 22.2 km/h 72 % 0 mm
07:44 11.4 °C 6.6 °C 1012.4 hPa NNW 19.3 km/h 19.3 km/h 72 % 0 mm
07:49 11.4 °C 6.5 °C 1012.4 hPa NNW 18.5 km/h 18.5 km/h 72 % 0 mm
07:54 11.3 °C 6.7 °C 1012.8 hPa North 16.7 km/h 16.7 km/h 73 % 0 mm
07:59 11.3 °C 6.6 °C 1012.8 hPa NW 22.2 km/h 22.2 km/h 73 % 0 mm
08:04 11.3 °C 6.8 °C 1012.8 hPa NW 29.6 km/h 29.6 km/h 74 % 0 mm
08:09 11.3 °C 6.6 °C 1012.8 hPa North 22.2 km/h 22.2 km/h 73 % 0 mm
08:14 11.3 °C 6.7 °C 1012.8 hPa NW 25.9 km/h 25.9 km/h 73 % 0 mm
08:19 11.4 °C 6.8 °C 1012.8 hPa NNW 22.5 km/h 22.5 km/h 73 % 0 mm
08:24 11.5 °C 6.6 °C 1013.1 hPa NW 24.1 km/h 24.1 km/h 72 % 0 mm
08:29 11.5 °C 6.6 °C 1013.1 hPa NW 13 km/h 13 km/h 72 % 0 mm
08:34 11.6 °C 6.7 °C 1013.1 hPa NW 16.7 km/h 16.7 km/h 72 % 0 mm
08:39 11.5 °C 6.6 °C 1013.1 hPa North 14.8 km/h 14.8 km/h 72 % 0 mm
08:44 11.4 °C 6.6 °C 1013.1 hPa NW 20.4 km/h 20.4 km/h 72 % 0 mm
08:49 11.4 °C 6.6 °C 1013.1 hPa NW 22.2 km/h 22.2 km/h 72 % 0 mm
08:54 11.4 °C 6.6 °C 1013.4 hPa NW 20.4 km/h 20.4 km/h 72 % 0 mm
08:59 11.5 °C 6.6 °C 1013.4 hPa NW 16.7 km/h 16.7 km/h 72 % 0 mm
09:04 11.5 °C 6.4 °C 1013.4 hPa NW 18.5 km/h 18.5 km/h 71 % 0 mm
09:09 11.6 °C 6.7 °C 1013.4 hPa NW 16.7 km/h 16.7 km/h 72 % 0 mm
09:14 11.7 °C 6.8 °C 1013.4 hPa NW 18.5 km/h 18.5 km/h 72 % 0 mm
09:19 11.8 °C 6.7 °C 1013.4 hPa NW 18.5 km/h 18.5 km/h 71 % 0 mm
09:24 11.9 °C 6.6 °C 1013.4 hPa NW 18.5 km/h 18.5 km/h 70 % 0 mm
09:29 11.9 °C 6.4 °C 1013.4 hPa North 18.5 km/h 18.5 km/h 69 % 0 mm
09:34 11.9 °C 6.2 °C 1013.4 hPa North 18.5 km/h 18.5 km/h 68 % 0 mm
09:39 12 °C 6.5 °C 1013.4 hPa NW 17.7 km/h 17.7 km/h 69 % 0 mm
09:44 12.1 °C 6.6 °C 1013.8 hPa North 16.7 km/h 16.7 km/h 69 % 0 mm
09:49 12.1 °C 6.3 °C 1013.8 hPa North 20.4 km/h 20.4 km/h 68 % 0 mm
09:54 12 °C 6.5 °C 1013.8 hPa North 14.8 km/h 14.8 km/h 69 % 0 mm
09:59 12.2 °C 6.5 °C 1013.8 hPa WNW 9.3 km/h 9.3 km/h 68 % 0 mm
10:04 12.4 °C 6.7 °C 1014.1 hPa WNW 11.3 km/h 11.3 km/h 68 % 0 mm
10:09 12.4 °C 6.4 °C 1014.1 hPa North 14.8 km/h 14.8 km/h 67 % 0 mm
10:14 12.6 °C 6.8 °C 1014.1 hPa North 13 km/h 13 km/h 68 % 0 mm
10:19 12.8 °C 7 °C 1014.1 hPa WNW 9.3 km/h 9.3 km/h 68 % 0 mm
10:24 12.9 °C 6.9 °C 1014.4 hPa West 16.7 km/h 16.7 km/h 67 % 0 mm
10:29 12.9 °C 6.7 °C 1014.4 hPa North 22.2 km/h 22.2 km/h 66 % 0 mm
10:34 12.6 °C 6.8 °C 1014.8 hPa North 19.3 km/h 19.3 km/h 68 % 0 mm
10:39 12.3 °C 6.6 °C 1014.8 hPa WSW 18.5 km/h 18.5 km/h 68 % 0 mm
10:44 12.2 °C 6.2 °C 1014.8 hPa North 16.7 km/h 16.7 km/h 67 % 0 mm
10:49 12.1 °C 6.6 °C 1014.8 hPa SW 16.7 km/h 16.7 km/h 69 % 0 mm
10:54 12.1 °C 6.4 °C 1014.8 hPa WSW 14.8 km/h 14.8 km/h 68 % 0 mm
10:59 12 °C 6.1 °C 1014.8 hPa SW 17.7 km/h 17.7 km/h 67 % 0 mm
11:04 11.9 °C 6.4 °C 1014.8 hPa North 18.5 km/h 18.5 km/h 69 % 0 mm
11:09 12 °C 6.5 °C 1015.1 hPa WSW 20.4 km/h 20.4 km/h 69 % 0 mm
11:14 11.9 °C 6.4 °C 1014.8 hPa WSW 18.5 km/h 18.5 km/h 69 % 0 mm
11:19 12 °C 6.7 °C 1014.8 hPa West 16.7 km/h 16.7 km/h 70 % 0 mm
11:24 12.1 °C 6.6 °C 1014.8 hPa WSW 14.8 km/h 14.8 km/h 69 % 0 mm
11:29 12.4 °C 6.8 °C 1014.8 hPa WSW 14.8 km/h 14.8 km/h 69 % 0 mm
11:34 12.4 °C 6.7 °C 1014.8 hPa WSW 11.1 km/h 11.1 km/h 68 % 0 mm
11:39 12.4 °C 6.8 °C 1014.8 hPa SW 18.5 km/h 18.5 km/h 69 % 0 mm
11:44 12.3 °C 6.8 °C 1014.8 hPa WSW 18.5 km/h 18.5 km/h 69 % 0 mm
11:49 12.2 °C 6.7 °C 1014.8 hPa West 18.5 km/h 18.5 km/h 69 % 0 mm
11:54 12 °C 6.1 °C 1014.8 hPa West 18.5 km/h 18.5 km/h 67 % 0 mm
11:59 11.9 °C 6.2 °C 1014.4 hPa West 16.7 km/h 16.7 km/h 68 % 0 mm
12:04 12.4 °C 6.9 °C 1014.8 hPa West 18.5 km/h 18.5 km/h 69 % 0 mm
12:09 12.9 °C 6.7 °C 1014.4 hPa WSW 18.5 km/h 18.5 km/h 66 % 0 mm
12:14 12.9 °C 6.7 °C 1014.4 hPa North 17.7 km/h 17.7 km/h 66 % 0 mm
12:19 12.8 °C 6.2 °C 1014.4 hPa West 27.8 km/h 27.8 km/h 64 % 0 mm
12:24 12.7 °C 6.3 °C 1014.4 hPa West 24.1 km/h 24.1 km/h 65 % 0 mm
12:29 12.8 °C 6.3 °C 1014.4 hPa WSW 18.5 km/h 18.5 km/h 65 % 0 mm
12:34 13 °C 7 °C 1014.4 hPa WSW 18.5 km/h 18.5 km/h 67 % 0 mm
12:39 13.3 °C 7.1 °C 1014.4 hPa West 16.7 km/h 16.7 km/h 66 % 0 mm
12:44 12.8 °C 6.4 °C 1014.4 hPa WSW 22.5 km/h 22.5 km/h 65 % 0 mm
12:49 12.3 °C 6.6 °C 1014.8 hPa SW 31.5 km/h 31.5 km/h 68 % 0 mm
12:54 11.6 °C 7.1 °C 1014.8 hPa SW 24.1 km/h 24.1 km/h 74 % 0 mm
12:59 10.9 °C 7.1 °C 1014.8 hPa SW 20.4 km/h 20.4 km/h 77 % 0 mm
13:04 10.7 °C 7.2 °C 1014.8 hPa SW 20.9 km/h 20.9 km/h 79 % 0 mm
13:09 11 °C 6.9 °C 1014.8 hPa SW 24.1 km/h 24.1 km/h 76 % 0 mm
13:14 11.4 °C 7.1 °C 1014.8 hPa SW 17.7 km/h 17.7 km/h 75 % 0 mm
13:19 11.8 °C 6.5 °C 1014.8 hPa WSW 20.4 km/h 20.4 km/h 70 % 0 mm
13:24 11.8 °C 5.9 °C 1014.8 hPa SW 22.2 km/h 22.2 km/h 67 % 0 mm
13:29 12 °C 6.1 °C 1014.8 hPa SW 18.5 km/h 18.5 km/h 67 % 0 mm
13:34 11.9 °C 6.2 °C 1014.8 hPa West 31.5 km/h 31.5 km/h 68 % 0 mm
13:39 11.8 °C 6.6 °C 1014.8 hPa SW 18.5 km/h 18.5 km/h 70 % 0 mm
13:44 12 °C 6.5 °C 1014.8 hPa WSW 22.2 km/h 22.2 km/h 69 % 0 mm
13:49 11.8 °C 5.9 °C 1014.8 hPa WSW 24.1 km/h 24.1 km/h 67 % 0 mm
13:54 11.6 °C 5.8 °C 1014.8 hPa WSW 18.5 km/h 18.5 km/h 68 % 0 mm
13:59 11.7 °C 6.2 °C 1014.8 hPa SW 14.8 km/h 14.8 km/h 69 % 0 mm
14:04 11.5 °C 6.2 °C 1014.8 hPa SSW 11.1 km/h 11.1 km/h 70 % 0 mm
14:09 11.5 °C 6.2 °C 1014.8 hPa SSW 16.7 km/h 16.7 km/h 70 % 0 mm
14:14 11.5 °C 6.4 °C 1014.8 hPa SSW 14.5 km/h 14.5 km/h 71 % 0 mm
14:19 11.6 °C 6.5 °C 1014.4 hPa SSW 9.3 km/h 9.3 km/h 71 % 0 mm
14:24 12.1 °C 6.6 °C 1014.4 hPa SSW 14.8 km/h 14.8 km/h 69 % 0 mm
14:29 12.4 °C 6.7 °C 1014.4 hPa SSW 9.3 km/h 9.3 km/h 68 % 0 mm
14:34 12.3 °C 6.1 °C 1014.4 hPa SSW 14.8 km/h 14.8 km/h 66 % 0 mm
14:39 12.3 °C 6.2 °C 1014.4 hPa North 14.8 km/h 14.8 km/h 66 % 0 mm
14:44 12.4 °C 6.1 °C 1014.4 hPa SSW 14.8 km/h 14.8 km/h 65 % 0 mm
14:49 12.4 °C 5.8 °C 1014.4 hPa SW 13 km/h 13 km/h 64 % 0 mm
14:55 12.3 °C 5.7 °C 1014.4 hPa SW 14.8 km/h 14.8 km/h 64 % 0 mm
15:00 12.4 °C 5.6 °C 1014.4 hPa North 11.3 km/h 11.3 km/h 63 % 0 mm
15:05 12.4 °C 5.6 °C 1014.4 hPa SW 14.8 km/h 14.8 km/h 63 % 0 mm
15:10 12.3 °C 5.5 °C 1014.8 hPa SW 11.1 km/h 11.1 km/h 63 % 0 mm
15:15 12.3 °C 5.5 °C 1014.8 hPa SW 7.4 km/h 7.4 km/h 63 % 0 mm
15:20 12.3 °C 5.7 °C 1014.8 hPa North 6.4 km/h 6.4 km/h 64 % 0 mm
15:25 12.5 °C 5.7 °C 1014.8 hPa SW 4.8 km/h 4.8 km/h 63 % 0 mm
15:30 12.5 °C 5.7 °C 1014.8 hPa North 5.6 km/h 5.6 km/h 63 % 0 mm
15:34 12.5 °C 5.7 °C 1014.8 hPa SW 5.6 km/h 5.6 km/h 63 % 0 mm
15:40 12.3 °C 5.7 °C 1014.8 hPa SW 7.4 km/h 7.4 km/h 64 % 0 mm
15:45 12.2 °C 5.8 °C 1014.8 hPa SW 5.6 km/h 5.6 km/h 65 % 0 mm
15:50 12.1 °C 5.7 °C 1015.1 hPa SW 6.4 km/h 6.4 km/h 65 % 0 mm
15:55 12 °C 5.7 °C 1015.1 hPa West 8 km/h 9.7 km/h 65 % 0 mm
16:00 11.9 °C 5.5 °C 1014.8 hPa SW 6.4 km/h 6.4 km/h 65 % 0 mm
16:05 11.8 °C 5.6 °C 1015.1 hPa SW 11.1 km/h 11.1 km/h 66 % 0 mm
16:10 11.6 °C 6.1 °C 1015.1 hPa South 11.1 km/h 11.1 km/h 69 % 0 mm
16:15 11.4 °C 6.1 °C 1015.1 hPa South 9.7 km/h 9.7 km/h 70 % 0 mm
16:20 11.3 °C 6 °C 1015.1 hPa South 9.3 km/h 9.3 km/h 70 % 0 mm
16:25 11.2 °C 5.9 °C 1015.1 hPa SSW 8 km/h 12.9 km/h 70 % 0 mm
16:30 11.2 °C 6.1 °C 1015.1 hPa SSW 8 km/h 8.4 km/h 71 % 0 mm
16:35 11.1 °C 6.1 °C 1015.1 hPa SSW 9.3 km/h 9.3 km/h 71 % 0 mm
16:40 11.1 °C 6.2 °C 1015.5 hPa SSW 14.8 km/h 14.8 km/h 72 % 0 mm
16:45 10.9 °C 6.1 °C 1015.5 hPa SSW 12.9 km/h 12.9 km/h 72 % 0 mm
16:50 10.8 °C 5.9 °C 1015.5 hPa SSW 9.3 km/h 9.3 km/h 72 % 0 mm
16:55 10.6 °C 5.6 °C 1015.5 hPa SSW 8 km/h 19.3 km/h 71 % 0 mm
17:00 10.5 °C 5.7 °C 1015.5 hPa SW 4.8 km/h 12.9 km/h 72 % 0 mm
17:05 10.3 °C 5.4 °C 1015.8 hPa SW 11.3 km/h 20.9 km/h 72 % 0 mm
17:10 10.1 °C 5.6 °C 1015.8 hPa WSW 24.1 km/h 24.1 km/h 74 % 0 mm
17:15 9.9 °C 5.7 °C 1015.8 hPa WNW 11.3 km/h 19.3 km/h 75 % 0.25 mm
17:20 9.3 °C 5.7 °C 1015.8 hPa WSW 12.9 km/h 20.9 km/h 78 % 0 mm
17:25 8.7 °C 5.6 °C 1015.8 hPa SSW 14.8 km/h 14.8 km/h 81 % 1.52 mm
17:30 8.6 °C 5.8 °C 1015.8 hPa North 7.4 km/h 7.4 km/h 83 % 1.78 mm
17:35 8.4 °C 5.9 °C 1015.8 hPa North 5.6 km/h 5.6 km/h 84 % 1.78 mm
17:40 8.4 °C 6.1 °C 1015.8 hPa West 3.2 km/h 4.8 km/h 85 % 0 mm
17:45 8.4 °C 6.2 °C 1015.8 hPa SSW 3.7 km/h 3.7 km/h 86 % 1.78 mm
17:50 8.4 °C 6.2 °C 1015.8 hPa SSW 1.9 km/h 1.9 km/h 86 % 1.78 mm
17:55 8.5 °C 6.4 °C 1016.1 hPa SSW 1.9 km/h   87 % 1.78 mm
18:00 8.5 °C 6.4 °C 1016.1 hPa Calm   3.2 km/h 87 % 0 mm
18:05 8.4 °C 6.4 °C 1016.5 hPa Calm   3.2 km/h 87 % 0 mm
18:10 8.3 °C 6.3 °C 1016.5 hPa Calm     87 % 0.51 mm
18:15 8.3 °C 6.4 °C 1016.5 hPa SSW 1.6 km/h 1.6 km/h 88 % 2.29 mm
18:20 8.2 °C 6.3 °C 1016.8 hPa SSW 7.4 km/h 7.4 km/h 88 % 1.27 mm
18:25 8.1 °C 6.1 °C 1016.8 hPa SW 11.1 km/h 11.1 km/h 87 % 1.27 mm
18:30 8.1 °C 6 °C 1017.2 hPa SW 8 km/h 11.3 km/h 87 % 0 mm
18:35 8.1 °C 6 °C 1016.8 hPa SW 4.8 km/h 11.3 km/h 87 % 0.51 mm
18:40 8 °C 5.9 °C 1016.8 hPa SW 4.8 km/h 8 km/h 87 % 0 mm
18:45 7.9 °C 5.9 °C 1016.8 hPa SW 5.6 km/h 5.6 km/h 87 % 1.78 mm
18:50 7.9 °C 5.9 °C 1016.8 hPa SW 1.9 km/h 1.9 km/h 87 % 2.03 mm
18:55 7.9 °C 6 °C 1016.8 hPa WSW 1.6 km/h 3.2 km/h 88 % 0 mm
19:00 7.9 °C 6 °C 1016.8 hPa SW 4.8 km/h 8 km/h 88 % 0 mm
19:05 7.8 °C 5.9 °C 1016.8 hPa North 5.6 km/h 5.6 km/h 88 % 2.03 mm
19:10 7.8 °C 5.9 °C 1016.8 hPa SW 5.6 km/h 5.6 km/h 88 % 1.78 mm
19:15 7.8 °C 5.9 °C 1017.2 hPa SW 3.2 km/h 6.4 km/h 88 % 0 mm
19:20 7.8 °C 5.9 °C 1017.2 hPa SW 7.4 km/h 7.4 km/h 88 % 1.27 mm
19:25 7.8 °C 5.9 °C 1017.2 hPa WSW 1.6 km/h 8 km/h 88 % 0 mm
19:30 7.8 °C 6.1 °C 1017.2 hPa Calm     89 % 1.02 mm
19:35 7.8 °C 6.1 °C 1017.2 hPa Calm     89 % 0.51 mm
19:40 7.8 °C 6.1 °C 1017.2 hPa Calm     89 % 0.51 mm
19:45 7.9 °C 6.3 °C 1017.2 hPa Calm     90 % 0.76 mm
19:50 7.9 °C 6.3 °C 1017.2 hPa Calm     90 % 0.51 mm
19:55 7.8 °C 6.3 °C 1017.2 hPa Calm     90 % 0 mm
20:00 7.8 °C 6.3 °C 1017.5 hPa SW 3.7 km/h 3.7 km/h 90 % 0.51 mm
20:05 7.8 °C 6.3 °C 1017.5 hPa Calm     90 % 0.51 mm
20:10 7.8 °C 6.4 °C 1017.5 hPa Calm     91 % 0.51 mm
20:15 7.8 °C 6.4 °C 1017.5 hPa Calm     91 % 0.51 mm
20:20 7.8 °C 6.4 °C 1017.5 hPa Calm     91 % 0 mm
20:25 7.8 °C 6.4 °C 1017.5 hPa Calm     91 % 0 mm
20:30 7.8 °C 6.4 °C 1017.5 hPa Calm     91 % 0.25 mm
20:35 7.7 °C 6.3 °C 1017.5 hPa Calm     91 % 0.25 mm
20:40 7.8 °C 6.4 °C 1017.8 hPa Calm     91 % 0.25 mm
20:45 7.8 °C 6.4 °C 1017.8 hPa Calm     91 % 0 mm
20:50 7.8 °C 6.4 °C 1017.8 hPa SW 1.9 km/h   91 % 0 mm
20:55 7.8 °C 6.6 °C 1017.8 hPa SW 1.9 km/h   92 % 0 mm
21:00 7.7 °C 6.5 °C 1017.8 hPa SW 1.6 km/h 1.6 km/h 92 % 0.25 mm
21:05 7.7 °C 6.5 °C 1018.2 hPa SW 3.7 km/h 3.7 km/h 92 % 0.25 mm
21:10 7.7 °C 6.5 °C 1018.2 hPa North 5.6 km/h 5.6 km/h 92 % 0.25 mm
21:15 7.7 °C 6.4 °C 1018.2 hPa SW 1.6 km/h 8 km/h 92 % 0 mm
21:20 7.7 °C 6.4 °C 1018.2 hPa Calm   3.2 km/h 92 % 0 mm
21:25 7.7 °C 6.4 °C 1018.5 hPa WSW 1.6 km/h 3.2 km/h 92 % 0.25 mm
21:30 7.6 °C 6.4 °C 1018.5 hPa Calm     92 % 0.51 mm
21:35 7.7 °C 6.4 °C 1018.5 hPa SW 5.6 km/h 5.6 km/h 92 % 0.51 mm
21:40 7.4 °C 6.2 °C 1018.8 hPa SW 20.4 km/h 20.4 km/h 92 % 0.51 mm
21:45 7.2 °C 5.8 °C 1018.8 hPa WSW 11.3 km/h 20.9 km/h 91 % 0 mm
21:50 7.1 °C 5.7 °C 1018.8 hPa SW 18.5 km/h 18.5 km/h 91 % 0.51 mm
21:55 7.1 °C 5.7 °C 1018.8 hPa West 14.5 km/h 24.1 km/h 91 % 0 mm
22:00 7 °C 5.6 °C 1018.8 hPa WSW 11.3 km/h 20.9 km/h 91 % 0 mm
22:05 7 °C 5.6 °C 1018.8 hPa SW 9.7 km/h 9.7 km/h 91 % 0.25 mm
22:10 6.9 °C 5.5 °C 1018.8 hPa SW 16.7 km/h 16.7 km/h 91 % 0.25 mm
22:15 6.9 °C 5.7 °C 1019.2 hPa SW 17.7 km/h 17.7 km/h 92 % 0.25 mm
22:20 6.8 °C 5.6 °C 1019.2 hPa SW 20.4 km/h 20.4 km/h 92 % 0 mm
22:25 6.8 °C 5.6 °C 1019.2 hPa SW 16.7 km/h 16.7 km/h 92 % 0 mm
22:30 6.8 °C 5.6 °C 1019.2 hPa SW 16.7 km/h 16.7 km/h 92 % 0.25 mm
22:34 6.8 °C 5.6 °C 1019.2 hPa SW 17.7 km/h 17.7 km/h 92 % 0.51 mm
22:39 6.7 °C 5.5 °C 1019.2 hPa SW 20.4 km/h 20.4 km/h 92 % 0.51 mm
22:44 6.7 °C 5.5 °C 1019.2 hPa SW 11.1 km/h 11.1 km/h 92 % 0.51 mm
22:49 6.7 °C 5.4 °C 1019.2 hPa North 18.5 km/h 18.5 km/h 92 % 0.51 mm
22:54 6.7 °C 5.4 °C 1019.2 hPa SW 16.7 km/h 16.7 km/h 92 % 0.51 mm
23:00 6.6 °C 5.4 °C 1019.2 hPa North 18.5 km/h 18.5 km/h 92 % 0.51 mm
23:05 6.6 °C 5.6 °C 1019.5 hPa North 18.5 km/h 18.5 km/h 93 % 0.76 mm
23:10 6.6 °C 5.6 °C 1019.5 hPa SW 14.8 km/h 14.8 km/h 93 % 0.76 mm
23:15 6.6 °C 5.4 °C 1019.2 hPa SW 18.5 km/h 18.5 km/h 92 % 0.76 mm
23:20 6.6 °C 5.3 °C 1019.2 hPa SW 14.5 km/h 14.5 km/h 92 % 0.76 mm
23:25 6.5 °C 5.3 °C 1019.2 hPa SW 11.1 km/h 11.1 km/h 92 % 0.76 mm
23:30 6.4 °C 5.2 °C 1019.2 hPa SSW 11.1 km/h 11.1 km/h 92 % 0.51 mm
23:35 6.4 °C 5.2 °C 1019.2 hPa North 16.7 km/h 16.7 km/h 92 % 0.51 mm
23:40 6.3 °C 5.1 °C 1019.2 hPa SSW 14.8 km/h 14.8 km/h 92 % 0.51 mm
23:45 6.2 °C 5 °C 1019.2 hPa SSW 8 km/h 20.9 km/h 92 % 0 mm
23:50 6.2 °C 4.9 °C 1019.2 hPa SSW 12.9 km/h 12.9 km/h 92 % 0.25 mm
23:55 6.1 °C 4.9 °C 1019.5 hPa SSW 8 km/h 8.7 km/h 92 % 0.25 mm
Ararat Weather
Compliments of Weather Underground - 2.25 mb
Click here to send mail.


ABOUT

Live weather data from Ararat, Victoria, Australia, 3377
Data uploaded from Cumulus every 5 minutes to Weather Underground.
This site then downloads the raw data for formatting and display.
Metric and imperial data can be displayed. Graphs and historical data available.
Includes Sun and Moon times and rain image live from BOM.

Check out Ararat Weather on Facebook, Twitter and Google +

Help support ongoing costs by checking out the ads





Follow @AraratWeather